sensor_id;sensor_type;location;lat;lon;timestamp;pressure;altitude;pressure_sealevel;temperature;humidity
34297;BME280;20564;42.902;25.336;2023-04-24T00:02:03;96927.19;;;8.05;94.71
34297;BME280;20564;42.902;25.336;2023-04-24T00:04:30;96922.25;;;8.12;94.01
34297;BME280;20564;42.902;25.336;2023-04-24T00:06:58;96930.88;;;8.03;94.26
34297;BME280;20564;42.902;25.336;2023-04-24T00:09:26;96923.03;;;8.03;94.26
34297;BME280;20564;42.902;25.336;2023-04-24T00:11:54;96925.47;;;7.94;94.40
34297;BME280;20564;42.902;25.336;2023-04-24T00:14:21;96916.50;;;7.97;95.14
34297;BME280;20564;42.902;25.336;2023-04-24T00:16:48;96913.63;;;8.00;94.71
34297;BME280;20564;42.902;25.336;2023-04-24T00:19:15;96918.84;;;8.00;94.79
34297;BME280;20564;42.902;25.336;2023-04-24T00:21:42;96912.78;;;8.00;95.02
34297;BME280;20564;42.902;25.336;2023-04-24T00:24:09;96905.31;;;7.95;95.24
34297;BME280;20564;42.902;25.336;2023-04-24T00:26:36;96906.94;;;7.86;95.28
34297;BME280;20564;42.902;25.336;2023-04-24T00:29:03;96909.75;;;7.94;95.96
34297;BME280;20564;42.902;25.336;2023-04-24T00:31:30;96905.81;;;7.79;97.17
34297;BME280;20564;42.902;25.336;2023-04-24T00:33:57;96917.56;;;7.64;97.75
34297;BME280;20564;42.902;25.336;2023-04-24T00:36:24;96914.50;;;7.59;98.41
34297;BME280;20564;42.902;25.336;2023-04-24T00:38:51;96908.13;;;7.52;98.06
34297;BME280;20564;42.902;25.336;2023-04-24T00:41:18;96920.06;;;7.44;98.69
34297;BME280;20564;42.902;25.336;2023-04-24T00:43:45;96916.03;;;7.40;99.38
34297;BME280;20564;42.902;25.336;2023-04-24T00:46:12;96927.34;;;7.41;99.13
34297;BME280;20564;42.902;25.336;2023-04-24T00:48:40;96918.22;;;7.35;99.38
34297;BME280;20564;42.902;25.336;2023-04-24T00:51:07;96923.72;;;7.32;100.00
34297;BME280;20564;42.902;25.336;2023-04-24T00:53:33;96915.28;;;7.29;100.00
34297;BME280;20564;42.902;25.336;2023-04-24T00:56:02;96916.09;;;7.29;100.00
34297;BME280;20564;42.902;25.336;2023-04-24T00:58:29;96908.16;;;7.19;100.00
34297;BME280;20564;42.902;25.336;2023-04-24T01:00:58;96904.28;;;7.14;100.00
34297;BME280;20564;42.902;25.336;2023-04-24T01:03:29;96907.25;;;7.09;100.00
34297;BME280;20564;42.902;25.336;2023-04-24T01:05:59;96912.00;;;7.15;100.00
34297;BME280;20564;42.902;25.336;2023-04-24T01:08:26;96905.34;;;7.11;100.00
34297;BME280;20564;42.902;25.336;2023-04-24T01:10:55;96914.59;;;7.15;100.00
34297;BME280;20564;42.902;25.336;2023-04-24T01:13:23;96908.59;;;7.04;100.00
34297;BME280;20564;42.902;25.336;2023-04-24T01:15:53;96917.47;;;7.12;100.00
34297;BME280;20564;42.902;25.336;2023-04-24T01:18:20;96911.34;;;7.02;100.00
34297;BME280;20564;42.902;25.336;2023-04-24T01:20:51;96910.97;;;7.07;100.00
34297;BME280;20564;42.902;25.336;2023-04-24T01:23:19;96905.00;;;7.05;100.00
34297;BME280;20564;42.902;25.336;2023-04-24T01:25:46;96901.13;;;6.99;100.00
34297;BME280;20564;42.902;25.336;2023-04-24T01:28:15;96896.97;;;6.96;100.00
34297;BME280;20564;42.902;25.336;2023-04-24T01:30:44;96898.19;;;6.92;100.00
34297;BME280;20564;42.902;25.336;2023-04-24T01:33:11;96889.56;;;7.01;100.00
34297;BME280;20564;42.902;25.336;2023-04-24T01:35:40;96900.31;;;6.98;100.00
34297;BME280;20564;42.902;25.336;2023-04-24T01:38:07;96900.31;;;6.98;100.00
34297;BME280;20564;42.902;25.336;2023-04-24T01:40:34;96902.91;;;6.98;100.00
34297;BME280;20564;42.902;25.336;2023-04-24T01:43:02;96902.53;;;7.03;100.00
34297;BME280;20564;42.902;25.336;2023-04-24T01:45:29;96895.66;;;7.02;100.00
34297;BME280;20564;42.902;25.336;2023-04-24T01:47:56;96892.91;;;7.04;100.00
34297;BME280;20564;42.902;25.336;2023-04-24T01:50:23;96895.38;;;7.05;100.00
34297;BME280;20564;42.902;25.336;2023-04-24T01:52:50;96890.53;;;7.00;100.00
34297;BME280;20564;42.902;25.336;2023-04-24T01:55:20;96887.66;;;7.04;100.00
34297;BME280;20564;42.902;25.336;2023-04-24T01:57:47;96889.56;;;7.01;100.00
34297;BME280;20564;42.902;25.336;2023-04-24T02:00:14;96885.25;;;7.12;100.00
34297;BME280;20564;42.902;25.336;2023-04-24T02:02:42;96871.19;;;7.13;100.00
34297;BME280;20564;42.902;25.336;2023-04-24T02:05:12;96878.59;;;7.08;100.00
34297;BME280;20564;42.902;25.336;2023-04-24T02:07:39;96876.69;;;7.10;100.00
34297;BME280;20564;42.902;25.336;2023-04-24T02:10:07;96871.19;;;7.13;100.00
34297;BME280;20564;42.902;25.336;2023-04-24T02:12:34;96875.50;;;7.14;100.00
34297;BME280;20564;42.902;25.336;2023-04-24T02:15:01;96867.75;;;7.12;100.00
34297;BME280;20564;42.902;25.336;2023-04-24T02:17:28;96876.16;;;7.16;100.00
34297;BME280;20564;42.902;25.336;2023-04-24T02:19:54;96864.88;;;7.15;100.00
34297;BME280;20564;42.902;25.336;2023-04-24T02:22:21;96861.69;;;7.12;100.00
34297;BME280;20564;42.902;25.336;2023-04-24T02:24:48;96863.88;;;7.07;100.00
34297;BME280;20564;42.902;25.336;2023-04-24T02:27:15;96861.94;;;7.09;100.00
34297;BME280;20564;42.902;25.336;2023-04-24T02:29:41;96850.88;;;7.05;100.00
34297;BME280;20564;42.902;25.336;2023-04-24T02:32:09;96861.50;;;7.04;100.00
34297;BME280;20564;42.902;25.336;2023-04-24T02:34:39;96863.28;;;7.03;100.00
34297;BME280;20564;42.902;25.336;2023-04-24T02:37:09;96867.41;;;7.06;100.00
34297;BME280;20564;42.902;25.336;2023-04-24T02:39:36;96858.25;;;7.11;100.00
34297;BME280;20564;42.902;25.336;2023-04-24T02:42:03;96859.78;;;7.14;100.00
34297;BME280;20564;42.902;25.336;2023-04-24T02:44:34;96859.06;;;7.12;100.00
34297;BME280;20564;42.902;25.336;2023-04-24T02:47:01;96860.03;;;7.11;100.00
34297;BME280;20564;42.902;25.336;2023-04-24T02:49:28;96855.03;;;7.08;100.00
34297;BME280;20564;42.902;25.336;2023-04-24T02:51:55;96860.47;;;7.16;100.00
34297;BME280;20564;42.902;25.336;2023-04-24T02:54:21;96861.63;;;7.23;100.00
34297;BME280;20564;42.902;25.336;2023-04-24T02:56:48;96857.78;;;7.27;100.00
34297;BME280;20564;42.902;25.336;2023-04-24T02:59:15;96866.94;;;7.33;100.00
34297;BME280;20564;42.902;25.336;2023-04-24T03:01:42;96860.34;;;7.38;100.00
34297;BME280;20564;42.902;25.336;2023-04-24T03:04:08;96860.88;;;7.32;100.00
34297;BME280;20564;42.902;25.336;2023-04-24T03:06:37;96856.31;;;7.34;100.00
34297;BME280;20564;42.902;25.336;2023-04-24T03:09:03;96853.38;;;7.48;100.00
34297;BME280;20564;42.902;25.336;2023-04-24T03:11:34;96865.06;;;7.44;100.00
34297;BME280;20564;42.902;25.336;2023-04-24T03:14:01;96866.47;;;7.48;100.00
34297;BME280;20564;42.902;25.336;2023-04-24T03:16:28;96865.78;;;7.46;100.00
34297;BME280;20564;42.902;25.336;2023-04-24T03:18:55;96851.59;;;7.49;100.00
34297;BME280;20564;42.902;25.336;2023-04-24T03:21:22;96851.50;;;7.60;100.00
34297;BME280;20564;42.902;25.336;2023-04-24T03:23:51;96837.38;;;7.72;100.00
34297;BME280;20564;42.902;25.336;2023-04-24T03:26:19;96840.66;;;7.65;100.00
34297;BME280;20564;42.902;25.336;2023-04-24T03:28:46;96843.53;;;7.62;100.00
34297;BME280;20564;42.902;25.336;2023-04-24T03:31:12;96836.81;;;7.69;100.00
34297;BME280;20564;42.902;25.336;2023-04-24T03:33:39;96829.38;;;7.74;100.00
34297;BME280;20564;42.902;25.336;2023-04-24T03:36:06;96836.56;;;7.72;100.00
34297;BME280;20564;42.902;25.336;2023-04-24T03:38:33;96834.59;;;7.64;100.00
34297;BME280;20564;42.902;25.336;2023-04-24T03:41:00;96843.28;;;7.65;100.00
34297;BME280;20564;42.902;25.336;2023-04-24T03:43:26;96839.84;;;7.64;100.00
34297;BME280;20564;42.902;25.336;2023-04-24T03:45:53;96857.06;;;7.67;100.00
34297;BME280;20564;42.902;25.336;2023-04-24T03:48:20;96861.63;;;7.65;100.00
34297;BME280;20564;42.902;25.336;2023-04-24T03:50:47;96861.16;;;7.60;100.00
34297;BME280;20564;42.902;25.336;2023-04-24T03:53:14;96854.59;;;7.75;100.00
34297;BME280;20564;42.902;25.336;2023-04-24T03:55:41;96866.19;;;7.72;100.00
34297;BME280;20564;42.902;25.336;2023-04-24T03:58:11;96861.84;;;7.83;100.00
34297;BME280;20564;42.902;25.336;2023-04-24T04:00:38;96867.81;;;7.94;100.00
34297;BME280;20564;42.902;25.336;2023-04-24T04:03:06;96864.22;;;7.95;100.00
34297;BME280;20564;42.902;25.336;2023-04-24T04:05:34;96857.34;;;7.94;100.00
34297;BME280;20564;42.902;25.336;2023-04-24T04:08:01;96864.09;;;7.97;100.00
34297;BME280;20564;42.902;25.336;2023-04-24T04:10:28;96860.94;;;8.03;100.00
34297;BME280;20564;42.902;25.336;2023-04-24T04:12:55;96871.47;;;8.13;100.00
34297;BME280;20564;42.902;25.336;2023-04-24T04:15:22;96879.78;;;8.28;100.00
34297;BME280;20564;42.902;25.336;2023-04-24T04:17:49;96884.00;;;8.40;100.00
34297;BME280;20564;42.902;25.336;2023-04-24T04:20:16;96883.47;;;8.46;100.00
34297;BME280;20564;42.902;25.336;2023-04-24T04:22:43;96892.72;;;8.50;100.00
34297;BME280;20564;42.902;25.336;2023-04-24T04:25:10;96893.00;;;8.57;100.00
34297;BME280;20564;42.902;25.336;2023-04-24T04:27:38;96894.13;;;8.64;100.00
34297;BME280;20564;42.902;25.336;2023-04-24T04:30:08;96903.66;;;8.65;100.00
34297;BME280;20564;42.902;25.336;2023-04-24T04:32:36;96910.44;;;8.77;100.00
34297;BME280;20564;42.902;25.336;2023-04-24T04:35:04;96905.63;;;8.82;100.00
34297;BME280;20564;42.902;25.336;2023-04-24T04:37:32;96913.78;;;8.89;100.00
34297;BME280;20564;42.902;25.336;2023-04-24T04:40:00;96915.03;;;8.94;100.00
34297;BME280;20564;42.902;25.336;2023-04-24T04:42:29;96914.47;;;9.01;100.00
34297;BME280;20564;42.902;25.336;2023-04-24T04:44:57;96913.25;;;9.05;100.00
34297;BME280;20564;42.902;25.336;2023-04-24T04:47:24;96921.13;;;9.14;100.00
34297;BME280;20564;42.902;25.336;2023-04-24T04:49:51;96920.00;;;9.17;100.00
34297;BME280;20564;42.902;25.336;2023-04-24T04:52:18;96908.97;;;9.23;100.00
34297;BME280;20564;42.902;25.336;2023-04-24T04:54:48;96909.94;;;9.22;100.00
34297;BME280;20564;42.902;25.336;2023-04-24T04:57:15;96917.53;;;9.25;100.00
34297;BME280;20564;42.902;25.336;2023-04-24T04:59:41;96913.38;;;9.32;100.00
34297;BME280;20564;42.902;25.336;2023-04-24T05:02:09;96907.28;;;9.41;100.00
34297;BME280;20564;42.902;25.336;2023-04-24T05:04:36;96900.22;;;9.52;100.00
34297;BME280;20564;42.902;25.336;2023-04-24T05:07:03;96902.53;;;9.64;100.00
34297;BME280;20564;42.902;25.336;2023-04-24T05:09:30;96903.84;;;9.98;100.00
34297;BME280;20564;42.902;25.336;2023-04-24T05:11:57;96902.09;;;10.35;100.00
34297;BME280;20564;42.902;25.336;2023-04-24T05:14:23;96897.34;;;10.84;96.15
34297;BME280;20564;42.902;25.336;2023-04-24T05:16:50;96901.06;;;11.27;92.41
34297;BME280;20564;42.902;25.336;2023-04-24T05:19:17;96883.91;;;11.67;88.07
34297;BME280;20564;42.902;25.336;2023-04-24T05:21:44;96871.00;;;12.08;85.42
34297;BME280;20564;42.902;25.336;2023-04-24T05:24:11;96875.72;;;12.39;83.42
34297;BME280;20564;42.902;25.336;2023-04-24T05:26:38;96874.69;;;12.74;81.57
34297;BME280;20564;42.902;25.336;2023-04-24T05:29:08;96880.19;;;13.05;81.85
34297;BME280;20564;42.902;25.336;2023-04-24T05:31:35;96874.97;;;13.38;77.22
34297;BME280;20564;42.902;25.336;2023-04-24T05:34:02;96865.34;;;13.78;75.92
34297;BME280;20564;42.902;25.336;2023-04-24T05:36:29;96872.25;;;13.95;73.16
34297;BME280;20564;42.902;25.336;2023-04-24T05:38:57;96860.94;;;14.17;72.43
34297;BME280;20564;42.902;25.336;2023-04-24T05:41:24;96863.53;;;14.34;68.95
34297;BME280;20564;42.902;25.336;2023-04-24T05:43:51;96863.50;;;14.50;67.95
34297;BME280;20564;42.902;25.336;2023-04-24T05:46:18;96873.25;;;14.81;66.38
34297;BME280;20564;42.902;25.336;2023-04-24T05:48:45;96870.13;;;15.08;64.54
34297;BME280;20564;42.902;25.336;2023-04-24T05:51:12;96866.22;;;15.19;62.66
34297;BME280;20564;42.902;25.336;2023-04-24T05:53:39;96868.22;;;15.40;64.09
34297;BME280;20564;42.902;25.336;2023-04-24T05:56:06;96858.91;;;15.67;62.07
34297;BME280;20564;42.902;25.336;2023-04-24T05:58:33;96853.06;;;15.86;60.23
34297;BME280;20564;42.902;25.336;2023-04-24T06:01:00;96855.47;;;16.26;59.96
34297;BME280;20564;42.902;25.336;2023-04-24T06:03:28;96860.63;;;16.63;58.85
34297;BME280;20564;42.902;25.336;2023-04-24T06:05:55;96855.06;;;16.58;57.84
34297;BME280;20564;42.902;25.336;2023-04-24T06:08:22;96853.88;;;16.76;57.38
34297;BME280;20564;42.902;25.336;2023-04-24T06:10:49;96855.41;;;17.06;55.36
34297;BME280;20564;42.902;25.336;2023-04-24T06:13:16;96861.88;;;17.40;55.33
34297;BME280;20564;42.902;25.336;2023-04-24T06:15:43;96847.78;;;17.68;55.60
34297;BME280;20564;42.902;25.336;2023-04-24T06:18:10;96847.91;;;18.16;54.32
34297;BME280;20564;42.902;25.336;2023-04-24T06:20:37;96855.31;;;18.62;52.01
34297;BME280;20564;42.902;25.336;2023-04-24T06:23:04;96849.91;;;18.96;50.59
34297;BME280;20564;42.902;25.336;2023-04-24T06:25:31;96841.56;;;19.13;49.31
34297;BME280;20564;42.902;25.336;2023-04-24T06:27:58;96843.22;;;19.47;46.80
34297;BME280;20564;42.902;25.336;2023-04-24T06:30:25;96838.09;;;19.59;45.75
34297;BME280;20564;42.902;25.336;2023-04-24T06:32:53;96844.50;;;19.64;45.35
34297;BME280;20564;42.902;25.336;2023-04-24T06:35:22;96848.59;;;19.67;46.78
34297;BME280;20564;42.902;25.336;2023-04-24T06:37:49;96838.50;;;19.89;43.28
34297;BME280;20564;42.902;25.336;2023-04-24T06:40:16;96837.84;;;20.13;44.06
34297;BME280;20564;42.902;25.336;2023-04-24T06:42:45;96836.16;;;20.32;42.62
34297;BME280;20564;42.902;25.336;2023-04-24T06:45:11;96843.13;;;20.53;42.83
34297;BME280;20564;42.902;25.336;2023-04-24T06:47:39;96832.53;;;20.78;41.69
34297;BME280;20564;42.902;25.336;2023-04-24T06:50:06;96829.25;;;21.08;41.52
34297;BME280;20564;42.902;25.336;2023-04-24T06:52:33;96838.19;;;21.27;41.43
34297;BME280;20564;42.902;25.336;2023-04-24T06:55:03;96836.13;;;21.35;40.57
34297;BME280;20564;42.902;25.336;2023-04-24T06:57:31;96834.34;;;20.84;39.91
34297;BME280;20564;42.902;25.336;2023-04-24T06:59:58;96837.09;;;20.64;40.21
34297;BME280;20564;42.902;25.336;2023-04-24T07:02:25;96832.22;;;20.41;41.04
34297;BME280;20564;42.902;25.336;2023-04-24T07:04:52;96831.06;;;20.11;42.31
34297;BME280;20564;42.902;25.336;2023-04-24T07:07:20;96835.47;;;19.79;42.23
34297;BME280;20564;42.902;25.336;2023-04-24T07:09:50;96838.28;;;19.44;43.64
34297;BME280;20564;42.902;25.336;2023-04-24T07:12:17;96836.84;;;19.21;44.25
34297;BME280;20564;42.902;25.336;2023-04-24T07:14:47;96837.25;;;19.05;45.86
34297;BME280;20564;42.902;25.336;2023-04-24T07:17:14;96843.00;;;19.09;45.45
34297;BME280;20564;42.902;25.336;2023-04-24T07:19:41;96840.94;;;19.11;45.79
34297;BME280;20564;42.902;25.336;2023-04-24T07:22:08;96848.94;;;19.11;47.65
34297;BME280;20564;42.902;25.336;2023-04-24T07:24:37;96841.53;;;19.06;45.10
34297;BME280;20564;42.902;25.336;2023-04-24T07:27:04;96845.22;;;19.12;46.28
34297;BME280;20564;42.902;25.336;2023-04-24T07:29:31;96850.56;;;19.05;47.63
34297;BME280;20564;42.902;25.336;2023-04-24T07:31:58;96858.31;;;18.93;46.04
34297;BME280;20564;42.902;25.336;2023-04-24T07:34:28;96852.97;;;18.80;46.12
34297;BME280;20564;42.902;25.336;2023-04-24T07:36:55;96852.25;;;18.65;46.09
34297;BME280;20564;42.902;25.336;2023-04-24T07:39:23;96846.47;;;18.54;47.12
34297;BME280;20564;42.902;25.336;2023-04-24T07:41:50;96847.91;;;18.50;47.35
34297;BME280;20564;42.902;25.336;2023-04-24T07:44:17;96854.78;;;18.38;48.98
34297;BME280;20564;42.902;25.336;2023-04-24T07:46:43;96855.44;;;18.40;47.47
34297;BME280;20564;42.902;25.336;2023-04-24T07:49:10;96850.91;;;18.41;47.74
34297;BME280;20564;42.902;25.336;2023-04-24T07:51:40;96851.63;;;18.63;48.03
34297;BME280;20564;42.902;25.336;2023-04-24T07:54:08;96844.16;;;18.79;47.96
34297;BME280;20564;42.902;25.336;2023-04-24T07:56:35;96843.97;;;18.94;45.70
34297;BME280;20564;42.902;25.336;2023-04-24T07:59:05;96843.16;;;19.00;46.33
34297;BME280;20564;42.902;25.336;2023-04-24T08:01:32;96848.91;;;18.91;47.57
34297;BME280;20564;42.902;25.336;2023-04-24T08:03:59;96846.00;;;18.86;46.74
34297;BME280;20564;42.902;25.336;2023-04-24T08:06:26;96851.16;;;18.87;47.30
34297;BME280;20564;42.902;25.336;2023-04-24T08:08:57;96850.31;;;18.93;47.53
34297;BME280;20564;42.902;25.336;2023-04-24T08:11:25;96859.56;;;18.97;47.56
34297;BME280;20564;42.902;25.336;2023-04-24T08:13:52;96853.63;;;18.95;48.14
34297;BME280;20564;42.902;25.336;2023-04-24T08:16:21;96849.66;;;18.78;47.52
34297;BME280;20564;42.902;25.336;2023-04-24T08:18:48;96860.31;;;18.71;48.00
34297;BME280;20564;42.902;25.336;2023-04-24T08:21:15;96853.41;;;18.49;46.90
34297;BME280;20564;42.902;25.336;2023-04-24T08:23:49;96857.00;;;18.28;47.77
34297;BME280;20564;42.902;25.336;2023-04-24T08:26:17;96846.44;;;18.06;48.14
34297;BME280;20564;42.902;25.336;2023-04-24T08:28:44;96847.16;;;17.94;49.18
34297;BME280;20564;42.902;25.336;2023-04-24T08:31:11;96853.41;;;17.79;49.04
34297;BME280;20564;42.902;25.336;2023-04-24T08:33:39;96838.75;;;17.69;49.78
34297;BME280;20564;42.902;25.336;2023-04-24T08:36:07;96852.44;;;17.66;50.59
34297;BME280;20564;42.902;25.336;2023-04-24T08:38:34;96852.91;;;17.69;51.06
34297;BME280;20564;42.902;25.336;2023-04-24T08:41:01;96847.78;;;17.68;51.32
34297;BME280;20564;42.902;25.336;2023-04-24T08:43:29;96848.16;;;17.65;53.13
34297;BME280;20564;42.902;25.336;2023-04-24T08:46:03;96843.50;;;17.73;51.02
34297;BME280;20564;42.902;25.336;2023-04-24T08:48:38;96845.03;;;17.82;49.77
34297;BME280;20564;42.902;25.336;2023-04-24T08:51:05;96844.28;;;17.89;50.23
34297;BME280;20564;42.902;25.336;2023-04-24T08:53:33;96840.28;;;18.06;50.61
34297;BME280;20564;42.902;25.336;2023-04-24T08:56:04;96841.72;;;18.43;50.28
34297;BME280;20564;42.902;25.336;2023-04-24T08:58:31;96832.88;;;18.84;48.72
34297;BME280;20564;42.902;25.336;2023-04-24T09:00:58;96832.56;;;19.27;47.20
34297;BME280;20564;42.902;25.336;2023-04-24T09:03:27;96830.47;;;19.29;47.57
34297;BME280;20564;42.902;25.336;2023-04-24T09:05:55;96831.53;;;19.35;45.51
34297;BME280;20564;42.902;25.336;2023-04-24T09:08:24;96830.09;;;19.32;45.52
34297;BME280;20564;42.902;25.336;2023-04-24T09:10:51;96823.91;;;19.25;46.32
34297;BME280;20564;42.902;25.336;2023-04-24T09:13:19;96818.19;;;19.28;45.64
34297;BME280;20564;42.902;25.336;2023-04-24T09:15:48;96820.03;;;19.27;45.66
34297;BME280;20564;42.902;25.336;2023-04-24T09:18:14;96824.13;;;19.17;48.21
34297;BME280;20564;42.902;25.336;2023-04-24T09:21:00;96822.25;;;19.11;46.89
34297;BME280;20564;42.902;25.336;2023-04-24T09:23:31;96814.84;;;18.99;48.13
34297;BME280;20564;42.902;25.336;2023-04-24T09:26:00;96821.44;;;19.17;46.69
34297;BME280;20564;42.902;25.336;2023-04-24T09:28:38;96817.97;;;19.36;45.74
34297;BME280;20564;42.902;25.336;2023-04-24T09:31:06;96820.84;;;19.55;46.58
34297;BME280;20564;42.902;25.336;2023-04-24T09:33:33;96815.50;;;19.88;45.92
34297;BME280;20564;42.902;25.336;2023-04-24T09:36:01;96809.44;;;20.26;45.75
34297;BME280;20564;42.902;25.336;2023-04-24T09:41:01;96802.72;;;20.68;43.09
34297;BME280;20564;42.902;25.336;2023-04-24T09:43:30;96811.16;;;20.71;42.72
34297;BME280;20564;42.902;25.336;2023-04-24T09:45:57;96814.66;;;20.65;41.30
34297;BME280;20564;42.902;25.336;2023-04-24T09:48:35;96800.94;;;20.48;43.00
34297;BME280;20564;42.902;25.336;2023-04-24T09:51:04;96799.91;;;20.56;41.69
34297;BME280;20564;42.902;25.336;2023-04-24T09:53:33;96796.34;;;20.69;43.80
34297;BME280;20564;42.902;25.336;2023-04-24T09:56:07;96795.66;;;20.80;43.21
34297;BME280;20564;42.902;25.336;2023-04-24T09:58:36;96797.91;;;20.83;43.42
34297;BME280;20564;42.902;25.336;2023-04-24T10:01:03;96795.25;;;20.83;42.92
34297;BME280;20564;42.902;25.336;2023-04-24T10:03:31;96805.25;;;20.94;42.82
34297;BME280;20564;42.902;25.336;2023-04-24T10:06:02;96798.69;;;20.90;43.52
34297;BME280;20564;42.902;25.336;2023-04-24T10:08:36;96791.59;;;20.78;44.36
34297;BME280;20564;42.902;25.336;2023-04-24T10:11:05;96789.09;;;20.76;43.48
34297;BME280;20564;42.902;25.336;2023-04-24T10:13:34;96790.66;;;20.59;42.73
34297;BME280;20564;42.902;25.336;2023-04-24T10:16:05;96781.84;;;20.52;42.50
34297;BME280;20564;42.902;25.336;2023-04-24T10:18:34;96784.84;;;20.62;42.45
34297;BME280;20564;42.902;25.336;2023-04-24T10:21:02;96788.84;;;20.39;41.07
34297;BME280;20564;42.902;25.336;2023-04-24T10:23:29;96783.47;;;20.46;42.37
34297;BME280;20564;42.902;25.336;2023-04-24T10:25:57;96792.88;;;20.62;42.85
34297;BME280;20564;42.902;25.336;2023-04-24T10:28:28;96784.25;;;20.60;41.45
34297;BME280;20564;42.902;25.336;2023-04-24T10:30:58;96797.94;;;20.25;41.66
34297;BME280;20564;42.902;25.336;2023-04-24T10:33:24;96800.00;;;20.23;43.33
34297;BME280;20564;42.902;25.336;2023-04-24T10:35:53;96802.13;;;19.94;43.58
34297;BME280;20564;42.902;25.336;2023-04-24T10:38:24;96810.38;;;19.86;44.37
34297;BME280;20564;42.902;25.336;2023-04-24T10:40:51;96815.72;;;19.46;47.28
34297;BME280;20564;42.902;25.336;2023-04-24T10:43:23;96809.13;;;19.16;48.27
34297;BME280;20564;42.902;25.336;2023-04-24T10:46:09;96799.25;;;18.96;49.31
34297;BME280;20564;42.902;25.336;2023-04-24T10:48:42;96795.13;;;18.81;51.61
34297;BME280;20564;42.902;25.336;2023-04-24T10:51:12;96794.22;;;18.67;51.46
34297;BME280;20564;42.902;25.336;2023-04-24T10:53:39;96790.94;;;18.65;51.93
34297;BME280;20564;42.902;25.336;2023-04-24T10:56:08;96788.13;;;18.73;50.73
34297;BME280;20564;42.902;25.336;2023-04-24T10:58:43;96780.97;;;18.80;49.63
34297;BME280;20564;42.902;25.336;2023-04-24T11:01:28;96779.56;;;18.91;51.56
34297;BME280;20564;42.902;25.336;2023-04-24T11:03:58;96782.03;;;19.06;50.36
34297;BME280;20564;42.902;25.336;2023-04-24T11:06:35;96787.38;;;19.19;48.76
34297;BME280;20564;42.902;25.336;2023-04-24T11:09:10;96791.50;;;19.28;48.63
34297;BME280;20564;42.902;25.336;2023-04-24T11:11:45;96785.31;;;19.34;48.61
34297;BME280;20564;42.902;25.336;2023-04-24T11:14:15;96773.00;;;19.53;48.56
34297;BME280;20564;42.902;25.336;2023-04-24T11:16:52;96770.16;;;19.74;48.53
34297;BME280;20564;42.902;25.336;2023-04-24T11:19:22;96763.94;;;19.94;48.34
34297;BME280;20564;42.902;25.336;2023-04-24T11:22:02;96768.03;;;19.96;45.83
34297;BME280;20564;42.902;25.336;2023-04-24T11:35:08;96757.16;;;20.43;43.83
34297;BME280;20564;42.902;25.336;2023-04-24T11:37:37;96753.38;;;20.19;45.11
34297;BME280;20564;42.902;25.336;2023-04-24T11:40:06;96741.22;;;20.23;45.33
34297;BME280;20564;42.902;25.336;2023-04-24T11:42:35;96742.31;;;20.47;46.25
34297;BME280;20564;42.902;25.336;2023-04-24T11:45:10;96737.69;;;20.74;44.79
34297;BME280;20564;42.902;25.336;2023-04-24T11:47:39;96734.38;;;20.79;44.18
34297;BME280;20564;42.902;25.336;2023-04-24T11:50:08;96738.38;;;20.94;43.33
34297;BME280;20564;42.902;25.336;2023-04-24T11:52:40;96730.03;;;21.09;43.33
34297;BME280;20564;42.902;25.336;2023-04-24T11:57:58;96725.56;;;21.03;45.98
34297;BME280;20564;42.902;25.336;2023-04-24T12:00:28;96742.69;;;20.95;45.96
34297;BME280;20564;42.902;25.336;2023-04-24T12:03:14;96734.41;;;20.72;46.11
34297;BME280;20564;42.902;25.336;2023-04-24T12:05:41;96741.38;;;20.35;47.01
34297;BME280;20564;42.902;25.336;2023-04-24T12:08:08;96730.53;;;20.23;47.78
34297;BME280;20564;42.902;25.336;2023-04-24T12:10:35;96735.13;;;20.03;48.13
34297;BME280;20564;42.902;25.336;2023-04-24T12:13:03;96728.22;;;19.75;48.01
34297;BME280;20564;42.902;25.336;2023-04-24T12:15:30;96721.88;;;19.63;48.68
34297;BME280;20564;42.902;25.336;2023-04-24T12:17:57;96715.53;;;19.64;48.69
34297;BME280;20564;42.902;25.336;2023-04-24T12:20:32;96711.00;;;19.71;49.21
34297;BME280;20564;42.902;25.336;2023-04-24T12:23:00;96706.63;;;19.83;49.22
34297;BME280;20564;42.902;25.336;2023-04-24T12:25:31;96698.34;;;20.05;47.96
34297;BME280;20564;42.902;25.336;2023-04-24T12:30:35;96696.22;;;20.20;47.43
34297;BME280;20564;42.902;25.336;2023-04-24T12:33:02;96682.72;;;20.08;46.82
34297;BME280;20564;42.902;25.336;2023-04-24T12:35:31;96679.09;;;20.28;47.86
34297;BME280;20564;42.902;25.336;2023-04-24T12:38:09;96669.56;;;20.45;46.54
34297;BME280;20564;42.902;25.336;2023-04-24T12:40:37;96661.84;;;20.62;47.17
34297;BME280;20564;42.902;25.336;2023-04-24T12:43:22;96655.47;;;20.63;46.30
34297;BME280;20564;42.902;25.336;2023-04-24T12:45:49;96653.81;;;20.62;47.23
34297;BME280;20564;42.902;25.336;2023-04-24T12:48:28;96638.31;;;20.77;47.17
34297;BME280;20564;42.902;25.336;2023-04-24T12:50:58;96635.81;;;21.01;48.08
34297;BME280;20564;42.902;25.336;2023-04-24T12:53:28;96629.47;;;21.20;47.52
34297;BME280;20564;42.902;25.336;2023-04-24T12:55:58;96632.56;;;21.42;46.50
34297;BME280;20564;42.902;25.336;2023-04-24T12:58:25;96625.03;;;21.32;45.98
34297;BME280;20564;42.902;25.336;2023-04-24T13:00:52;96614.13;;;21.34;45.66
34297;BME280;20564;42.902;25.336;2023-04-24T13:03:19;96614.31;;;21.32;46.13
34297;BME280;20564;42.902;25.336;2023-04-24T13:05:46;96608.78;;;21.34;44.99
34297;BME280;20564;42.902;25.336;2023-04-24T13:08:13;96611.25;;;21.35;44.80
34297;BME280;20564;42.902;25.336;2023-04-24T13:10:40;96611.81;;;21.56;44.73
34297;BME280;20564;42.902;25.336;2023-04-24T13:13:08;96604.16;;;21.41;44.77
34297;BME280;20564;42.902;25.336;2023-04-24T13:15:35;96607.94;;;21.33;44.64